Time;durP1;ratioP1;P1;durP2;ratioP2;P2;SDS_P1;SDS_P2;PMS_P1;PMS_P2;Temp;Humidity;BMP_temperature;BMP_pressure;BME280_temperature;BME280_humidity;BME280_pressure;Samples;Min_cycle;Max_cycle;Signal;HPM_P1;HPM_P2
2023/05/18 00:02:04;;;;;;;14.87;3.37;;;;;;;16.78;52.26;102678.31;5046613;28;20030;-49
2023/05/18 00:04:33;;;;;;;14.52;3.55;;;;;;;16.69;52.56;102675.94;5055840;28;20112;-52
2023/05/18 00:07:02;;;;;;;15.50;4.00;;;;;;;16.72;52.36;102673.69;5056880;28;20053;-53
2023/05/18 00:09:31;;;;;;;13.70;3.25;;;;;;;16.78;52.35;102678.31;5052518;28;20083;-52
2023/05/18 00:11:58;;;;;;;7.57;2.65;;;;;;;16.23;53.78;102677.09;5051329;28;20047;-51
2023/05/18 00:14:23;;;;;;;11.00;3.33;;;;;;;16.20;54.44;102676.44;5053860;28;20033;-52
2023/05/18 00:16:52;;;;;;;7.13;2.78;;;;;;;16.44;54.09;102671.75;5052958;28;20037;-53
2023/05/18 00:19:19;;;;;;;9.35;2.75;;;;;;;16.47;53.83;102671.34;5057799;28;20052;-54
2023/05/18 00:21:45;;;;;;;11.35;2.60;;;;;;;16.31;54.34;102682.38;5054066;28;20045;-50
2023/05/18 00:24:11;;;;;;;8.65;2.60;;;;;;;16.43;54.42;102677.31;5060474;28;20071;-50
2023/05/18 00:26:41;;;;;;;7.15;2.72;;;;;;;16.29;54.70;102679.88;5063179;28;20020;-47
2023/05/18 00:29:07;;;;;;;12.55;2.88;;;;;;;16.53;53.84;102679.72;5058122;28;20063;-50
2023/05/18 00:31:37;;;;;;;5.82;2.00;;;;;;;16.43;54.08;102680.88;5054563;28;20033;-51
2023/05/18 00:34:03;;;;;;;11.48;3.05;;;;;;;16.41;54.19;102676.66;5040981;28;20041;-51
2023/05/18 00:36:30;;;;;;;9.73;3.53;;;;;;;15.90;55.42;102679.13;5057761;28;20109;-49
2023/05/18 00:38:55;;;;;;;10.43;2.88;;;;;;;15.99;56.18;102679.06;5059891;28;20095;-55
2023/05/18 00:41:21;;;;;;;17.00;4.07;;;;;;;16.23;55.08;102680.59;5036493;28;20037;-52
2023/05/18 00:43:47;;;;;;;10.70;3.15;;;;;;;16.20;55.23;102691.78;5050942;28;20038;-51
2023/05/18 00:46:12;;;;;;;14.98;2.55;;;;;;;16.13;55.90;102686.28;5036176;28;20041;-49
2023/05/18 00:48:38;;;;;;;10.80;2.90;;;;;;;16.07;55.70;102687.06;5039722;28;20029;-55
2023/05/18 00:51:05;;;;;;;10.05;2.63;;;;;;;15.91;56.47;102680.84;5054709;28;20047;-48
2023/05/18 00:53:32;;;;;;;5.47;2.35;;;;;;;16.13;55.67;102686.28;5054707;28;20041;-54
2023/05/18 00:55:57;;;;;;;6.75;2.50;;;;;;;15.87;56.15;102686.75;5038941;28;20076;-53
2023/05/18 00:58:24;;;;;;;17.10;2.77;;;;;;;16.14;55.40;102681.75;5040263;28;20029;-53
2023/05/18 01:00:50;;;;;;;12.07;2.25;;;;;;;16.07;55.33;102686.22;5037452;28;20040;-52
2023/05/18 01:03:18;;;;;;;10.45;2.90;;;;;;;15.96;55.60;102679.44;5056997;28;20034;-53
2023/05/18 01:05:44;;;;;;;9.32;2.28;;;;;;;15.96;55.68;102684.84;5057119;28;20089;-50
2023/05/18 01:08:09;;;;;;;7.63;2.67;;;;;;;15.82;56.27;102686.47;5057657;28;20065;-53
2023/05/18 01:10:38;;;;;;;9.40;3.13;;;;;;;15.87;56.08;102692.97;5055343;28;20065;-50
2023/05/18 01:13:14;;;;;;;12.30;2.53;;;;;;;15.92;55.76;102681.66;5055786;28;20044;-51
2023/05/18 01:15:46;;;;;;;11.27;3.50;;;;;;;15.87;56.14;102687.56;5061753;28;20040;-51
2023/05/18 01:18:33;;;;;;;8.45;2.85;;;;;;;15.94;56.01;102689.59;5058048;28;20041;-51
2023/05/18 01:21:12;;;;;;;14.52;3.22;;;;;;;15.94;56.14;102694.97;5053895;28;20046;-48
2023/05/18 01:23:51;;;;;;;11.32;2.30;;;;;;;15.85;56.13;102692.31;5036808;28;20033;-52
2023/05/18 01:26:28;;;;;;;10.82;2.42;;;;;;;15.84;56.59;102692.53;5056564;28;20029;-49
2023/05/18 01:29:00;;;;;;;8.68;2.70;;;;;;;15.88;56.88;102694.69;5039837;28;20038;-50
2023/05/18 01:31:26;;;;;;;10.15;3.22;;;;;;;15.80;57.23;102697.44;5036403;28;20036;-51
2023/05/18 01:33:52;;;;;;;7.88;2.53;;;;;;;15.78;57.22;102699.50;5050686;28;20072;-52
2023/05/18 01:36:17;;;;;;;12.00;3.37;;;;;;;15.83;57.20;102696.25;5037750;28;20068;-49
2023/05/18 01:38:44;;;;;;;12.20;3.53;;;;;;;15.86;57.62;102699.41;5056647;28;20068;-55
2023/05/18 01:41:17;;;;;;;;;;;;;;;15.80;57.94;102702.84;5054811;28;20037;-53
2023/05/18 01:43:52;;;;;;;9.57;2.58;;;;;;;15.74;58.23;102700.88;5050686;28;19913;-49
2023/05/18 01:46:33;;;;;;;7.15;2.95;;;;;;;15.69;58.50;102700.59;5053984;28;20041;-50
2023/05/18 01:49:10;;;;;;;6.07;2.80;;;;;;;15.74;58.28;102696.31;5034361;28;20034;-51
2023/05/18 01:51:42;;;;;;;9.55;2.80;;;;;;;15.69;58.43;102698.75;5055708;28;20064;-51
2023/05/18 01:54:10;;;;;;;16.70;3.40;;;;;;;15.74;58.46;102695.50;5055761;28;20108;-50
2023/05/18 01:56:38;;;;;;;10.02;2.88;;;;;;;15.70;58.83;102696.88;5039520;28;20029;-50
2023/05/18 01:59:04;;;;;;;11.35;3.30;;;;;;;15.56;59.44;102691.28;5038452;28;20033;-48
2023/05/18 02:01:30;;;;;;;12.40;3.33;;;;;;;15.59;59.56;102695.47;5029484;28;20040;-49
2023/05/18 02:03:56;;;;;;;6.97;2.67;;;;;;;15.56;59.71;102688.59;5034183;28;20266;-50
2023/05/18 02:06:21;;;;;;;6.50;2.90;;;;;;;15.48;60.10;102685.97;5035999;28;20116;-48
2023/05/18 02:08:47;;;;;;;8.83;2.83;;;;;;;15.31;60.67;102696.91;5042802;28;20045;-51
2023/05/18 02:11:13;;;;;;;10.00;2.83;;;;;;;15.53;59.94;102690.78;5057875;28;20048;-51
2023/05/18 02:13:39;;;;;;;14.73;2.90;;;;;;;15.56;59.78;102687.72;5037495;28;20033;-50
2023/05/18 02:16:05;;;;;;;9.77;3.05;;;;;;;15.57;59.42;102684.88;5053714;28;20091;-52
2023/05/18 02:18:33;;;;;;;11.77;2.83;;;;;;;15.15;61.06;102694.34;5036704;28;20033;-53
2023/05/18 02:20:59;;;;;;;10.25;2.70;;;;;;;15.35;60.77;102681.22;5056471;28;20033;-50
2023/05/18 02:23:25;;;;;;;12.27;3.10;;;;;;;15.44;60.63;102692.72;5060904;28;20124;-53
2023/05/18 02:25:54;;;;;;;9.95;2.97;;;;;;;15.48;60.23;102689.50;5041262;28;20045;-51
2023/05/18 02:28:20;;;;;;;9.05;2.67;;;;;;;15.40;60.44;102689.59;5058431;28;20041;-51
2023/05/18 02:30:46;;;;;;;9.00;2.72;;;;;;;15.43;60.43;102685.66;5034942;28;20029;-52
2023/05/18 02:33:11;;;;;;;9.35;2.97;;;;;;;15.40;60.69;102686.03;5039188;28;20072;-49
2023/05/18 02:35:37;;;;;;;15.38;3.47;;;;;;;15.34;61.01;102683.06;5058583;28;20024;-51
2023/05/18 02:38:03;;;;;;;6.20;2.30;;;;;;;15.31;61.20;102680.72;5040621;28;20065;-50
2023/05/18 02:40:28;;;;;;;6.07;2.47;;;;;;;15.32;61.14;102684.25;5058127;28;20075;-48
2023/05/18 02:42:54;;;;;;;7.30;2.80;;;;;;;15.31;60.98;102678.03;5059477;28;20089;-51
2023/05/18 02:45:20;;;;;;;9.50;2.83;;;;;;;15.40;60.54;102678.78;5036335;28;20041;-50
2023/05/18 02:47:46;;;;;;;8.35;3.58;;;;;;;15.38;60.46;102677.28;5053948;28;20022;-51
2023/05/18 02:50:12;;;;;;;6.30;2.67;;;;;;;15.20;61.38;102682.00;5053610;28;20037;-47
2023/05/18 02:52:38;;;;;;;8.07;3.00;;;;;;;15.33;60.99;102680.53;5032705;28;20060;-49
2023/05/18 02:55:05;;;;;;;10.50;2.70;;;;;;;15.33;61.43;102680.53;5031616;28;20033;-52
2023/05/18 02:57:55;;;;;;;12.98;2.70;;;;;;;15.26;62.16;102675.06;5033522;28;20033;-52
2023/05/18 03:00:22;;;;;;;12.63;2.88;;;;;;;15.24;62.74;102673.53;5037473;28;20033;-51
2023/05/18 03:02:49;;;;;;;9.65;3.20;;;;;;;15.33;62.58;102670.59;5036297;28;20093;-49
2023/05/18 03:05:22;;;;;;;9.40;2.75;;;;;;;15.27;62.48;102671.34;5054249;28;20052;-49
2023/05/18 03:07:53;;;;;;;10.15;3.63;;;;;;;15.23;62.74;102670.03;5030798;28;20404;-51
2023/05/18 03:10:20;;;;;;;8.40;3.47;;;;;;;15.22;62.93;102673.72;5032459;28;20041;-52
2023/05/18 03:12:46;;;;;;;12.95;3.53;;;;;;;15.17;63.27;102678.81;5056143;28;20022;-51
2023/05/18 03:15:15;;;;;;;7.43;2.72;;;;;;;15.31;62.80;102677.19;5032262;28;20038;-51
2023/05/18 03:17:41;;;;;;;12.52;3.42;;;;;;;15.30;62.86;102676.34;5035829;28;20060;-48
2023/05/18 03:20:10;;;;;;;13.68;3.40;;;;;;;15.29;62.70;102677.38;5032321;28;20048;-48
2023/05/18 03:22:39;;;;;;;11.85;2.63;;;;;;;15.18;63.12;102681.34;5038537;28;20037;-51
2023/05/18 03:25:05;;;;;;;10.65;3.35;;;;;;;15.08;63.93;102679.91;5039637;28;20105;-50
2023/05/18 03:27:32;;;;;;;10.38;3.13;;;;;;;15.03;64.46;102680.44;5035633;28;20063;-49
2023/05/18 03:29:58;;;;;;;16.02;3.50;;;;;;;14.87;64.52;102684.09;5049641;28;20063;-48
2023/05/18 03:32:23;;;;;;;5.85;2.78;;;;;;;14.86;65.44;102685.13;5058229;28;20033;-50
2023/05/18 03:34:51;;;;;;;13.93;3.07;;;;;;;14.95;64.94;102689.41;5032181;28;20034;-47
2023/05/18 03:37:19;;;;;;;11.82;3.25;;;;;;;15.01;64.63;102687.88;5039375;28;20274;-47
2023/05/18 03:39:44;;;;;;;11.55;3.45;;;;;;;14.75;65.78;102687.19;5038118;28;20029;-47
2023/05/18 03:42:11;;;;;;;7.68;3.28;;;;;;;14.79;66.33;102685.00;5017131;28;20034;-49
2023/05/18 03:44:36;;;;;;;11.13;2.87;;;;;;;14.69;67.26;102687.88;5051518;28;20037;-50
2023/05/18 03:47:03;;;;;;;12.45;2.95;;;;;;;14.67;67.71;102686.41;5036078;28;20285;-52
2023/05/18 03:49:29;;;;;;;15.60;3.28;;;;;;;14.64;68.05;102687.56;5037262;28;20045;-51
2023/05/18 03:51:55;;;;;;;13.77;3.20;;;;;;;14.52;69.12;102686.28;5054092;28;20041;-49
2023/05/18 03:54:21;;;;;;;5.93;3.33;;;;;;;14.41;69.74;102684.81;5058296;28;20124;-48
2023/05/18 03:56:47;;;;;;;11.07;2.88;;;;;;;14.31;70.85;102691.28;5062764;28;20025;-50
2023/05/18 03:59:13;;;;;;;10.10;4.25;;;;;;;14.57;69.26;102690.13;5057933;28;20048;-49
2023/05/18 04:01:43;;;;;;;8.70;2.70;;;;;;;14.49;69.33;102691.00;5057252;28;20025;-49
2023/05/18 04:04:16;;;;;;;9.95;3.92;;;;;;;14.47;69.55;102693.03;5057213;28;20060;-48
2023/05/18 04:06:48;;;;;;;11.88;3.47;;;;;;;14.55;69.25;102683.28;5038178;28;20053;-47
2023/05/18 04:09:16;;;;;;;9.60;3.60;;;;;;;14.61;68.77;102693.31;5037832;28;20132;-49
2023/05/18 04:11:42;;;;;;;11.23;3.35;;;;;;;14.59;68.47;102688.09;5039717;28;20021;-47
2023/05/18 04:14:10;;;;;;;7.60;2.53;;;;;;;14.55;68.73;102688.66;5043389;28;20037;-48
2023/05/18 04:16:36;;;;;;;10.48;3.22;;;;;;;14.59;68.52;102693.50;5057548;28;20059;-49
2023/05/18 04:19:03;;;;;;;15.13;3.70;;;;;;;14.57;68.54;102695.53;5047403;28;20063;-54
2023/05/18 04:21:34;;;;;;;12.70;3.35;;;;;;;14.55;68.64;102699.41;5057998;28;20033;-49
2023/05/18 04:24:06;;;;;;;13.35;3.97;;;;;;;14.63;69.05;102707.44;5040919;28;20029;-47
2023/05/18 04:26:35;;;;;;;14.57;3.50;;;;;;;14.65;68.57;102700.03;5057695;28;20033;-49
2023/05/18 04:29:06;;;;;;;13.57;3.70;;;;;;;14.53;68.40;102696.03;5038181;28;20033;-51
2023/05/18 04:31:34;;;;;;;10.57;3.00;;;;;;;14.67;68.37;102695.28;5057617;28;20021;-50
2023/05/18 04:33:59;;;;;;;12.13;3.90;;;;;;;14.59;68.72;102700.75;5035509;28;20045;-51
2023/05/18 04:36:29;;;;;;;8.43;4.03;;;;;;;14.60;68.68;102697.03;5059951;28;20052;-50
2023/05/18 04:38:59;;;;;;;13.35;3.15;;;;;;;14.59;68.62;102708.81;5037674;28;20030;-49
2023/05/18 04:41:27;;;;;;;13.73;3.60;;;;;;;14.58;69.04;102707.13;5038373;28;20044;-53
2023/05/18 04:43:53;;;;;;;12.43;3.28;;;;;;;14.84;67.37;102714.09;5032297;28;20036;-50
2023/05/18 04:46:21;;;;;;;8.60;3.30;;;;;;;14.77;67.64;102712.13;5038168;28;20029;-48
2023/05/18 04:48:48;;;;;;;10.88;3.75;;;;;;;14.70;67.68;102716.47;5036535;28;20022;-49
2023/05/18 04:51:20;;;;;;;11.75;4.55;;;;;;;14.81;67.12;102719.84;5059820;28;20041;-51
2023/05/18 04:53:48;;;;;;;9.90;3.17;;;;;;;14.87;66.92;102724.50;5060543;28;20036;-51
2023/05/18 04:56:21;;;;;;;8.15;3.58;;;;;;;14.85;66.97;102731.94;5035066;28;20048;-53
2023/05/18 04:58:47;;;;;;;9.38;3.58;;;;;;;14.84;67.12;102731.06;5055108;28;20049;-53
2023/05/18 05:01:16;;;;;;;10.80;3.55;;;;;;;14.91;66.71;102723.97;5059840;28;20106;-52
2023/05/18 05:03:43;;;;;;;9.02;3.67;;;;;;;14.73;67.90;102723.41;5057162;28;20030;-53
2023/05/18 05:06:09;;;;;;;12.35;3.95;;;;;;;14.81;67.71;102717.16;5037435;28;20151;-50
2023/05/18 05:08:35;;;;;;;9.77;3.58;;;;;;;15.00;66.35;102724.78;5037162;28;20033;-50
2023/05/18 05:11:02;;;;;;;8.45;2.72;;;;;;;15.03;66.15;102724.41;5040293;28;20044;-51
2023/05/18 05:13:27;;;;;;;15.18;3.88;;;;;;;14.93;66.62;102729.16;5037558;28;20041;-54
2023/05/18 05:15:53;;;;;;;12.63;3.80;;;;;;;14.96;66.31;102728.81;5040825;28;20040;-50
2023/05/18 05:18:19;;;;;;;12.27;3.63;;;;;;;15.01;66.25;102731.84;5040070;28;20029;-49
2023/05/18 05:20:44;;;;;;;21.83;3.33;;;;;;;15.09;65.91;102733.59;5042541;28;20047;-51
2023/05/18 05:23:10;;;;;;;10.45;3.00;;;;;;;15.32;65.22;102735.47;5039470;28;20041;-49
2023/05/18 05:25:38;;;;;;;10.95;3.50;;;;;;;15.50;64.25;102740.56;5040170;28;20056;-49
2023/05/18 05:28:04;;;;;;;10.13;3.43;;;;;;;15.62;63.20;102731.00;5039873;28;20102;-49
2023/05/18 05:30:30;;;;;;;11.75;4.22;;;;;;;15.50;63.12;102740.56;5056921;28;20033;-53
2023/05/18 05:32:55;;;;;;;11.50;3.60;;;;;;;15.61;63.04;102734.72;5037066;28;20036;-56
2023/05/18 05:35:21;;;;;;;9.80;3.63;;;;;;;15.56;63.03;102723.63;5059563;28;20043;-51
2023/05/18 05:37:47;;;;;;;7.10;3.27;;;;;;;15.56;63.02;102730.88;5060900;28;20287;-48
2023/05/18 05:40:13;;;;;;;;;;;;;;;15.81;62.08;102733.38;5040503;28;20343;-47
2023/05/18 05:42:44;;;;;;;14.48;3.10;;;;;;;16.13;61.13;102734.88;5059946;28;19917;-48
2023/05/18 05:45:10;;;;;;;13.30;3.97;;;;;;;15.91;61.55;102733.94;5037603;28;20041;-52
2023/05/18 05:47:42;;;;;;;10.52;3.10;;;;;;;16.27;60.42;102726.97;5037199;28;20267;-48
2023/05/18 05:50:09;;;;;;;13.68;3.17;;;;;;;16.17;61.01;102735.34;5039728;28;20041;-48
2023/05/18 05:52:36;;;;;;;;;;;;;;;16.29;60.61;102727.63;5040108;28;20048;-47
2023/05/18 05:55:03;;;;;;;10.32;2.95;;;;;;;16.28;60.70;102734.03;5038434;28;19920;-49
2023/05/18 05:57:30;;;;;;;22.83;4.07;;;;;;;16.52;59.97;102729.34;5036808;28;20037;-50
2023/05/18 05:59:56;;;;;;;10.05;3.42;;;;;;;16.52;59.19;102726.66;5039896;28;20033;-50
2023/05/18 06:02:22;;;;;;;9.87;3.00;;;;;;;16.65;58.75;102737.63;5042275;28;20041;-52
2023/05/18 06:04:47;;;;;;;13.80;3.75;;;;;;;16.87;58.37;102735.78;5039735;28;20052;-51
2023/05/18 06:07:13;;;;;;;10.60;3.95;;;;;;;16.94;58.13;102735.88;5057192;28;20057;-49
2023/05/18 06:09:39;;;;;;;13.90;4.43;;;;;;;17.05;57.63;102732.66;5037228;28;20084;-48
2023/05/18 06:12:05;;;;;;;18.38;3.08;;;;;;;17.19;56.75;102732.81;5037247;28;20060;-50
2023/05/18 06:14:32;;;;;;;12.43;3.33;;;;;;;17.22;56.17;102737.81;5041114;28;20044;-51
2023/05/18 06:16:58;;;;;;;8.85;2.83;;;;;;;17.20;55.91;102731.78;5041205;28;20037;-55
2023/05/18 06:19:24;;;;;;;;;;;;;;;17.04;56.43;102733.69;5054030;28;20041;-48
2023/05/18 06:21:51;;;;;;;7.40;2.58;;;;;;;17.19;55.05;102738.22;5036892;28;19971;-52
2023/05/18 06:24:18;;;;;;;10.98;2.50;;;;;;;16.96;55.48;102738.38;5056960;28;20029;-53
2023/05/18 06:27:13;;;;;;;10.82;2.70;;;;;;;16.87;55.75;102737.66;5039714;28;20072;-52
2023/05/18 06:30:09;;;;;;;8.10;2.65;;;;;;;17.59;54.10;102748.53;5039587;28;20030;-48
2023/05/18 06:32:47;;;;;;;16.02;3.08;;;;;;;17.70;52.79;102747.16;5042142;28;20140;-49
2023/05/18 06:35:14;;;;;;;10.50;2.30;;;;;;;17.62;52.90;102749.00;5056624;28;20037;-47
2023/05/18 06:37:39;;;;;;;10.00;2.47;;;;;;;17.78;52.76;102758.69;5053963;28;20029;-48
2023/05/18 06:40:06;;;;;;;9.93;3.53;;;;;;;17.56;52.95;102759.75;5054194;28;20037;-48
2023/05/18 06:42:32;;;;;;;10.75;2.72;;;;;;;17.91;52.07;102757.13;5053858;28;20064;-50
2023/05/18 06:45:21;;;;;;;9.50;2.47;;;;;;;17.67;52.53;102761.94;5056123;28;20048;-53
2023/05/18 06:47:48;;;;;;;11.10;2.83;;;;;;;17.51;52.85;102759.50;5036084;28;20028;-51
2023/05/18 06:50:13;;;;;;;11.30;2.97;;;;;;;17.82;52.42;102761.00;5054100;28;20033;-47
2023/05/18 06:52:39;;;;;;;15.48;2.67;;;;;;;18.15;51.83;102758.53;5038895;28;20064;-48
2023/05/18 06:55:06;;;;;;;9.43;2.90;;;;;;;18.16;51.95;102754.78;5036410;28;20068;-52
2023/05/18 06:57:32;;;;;;;11.60;2.63;;;;;;;17.80;52.67;102763.06;5039466;28;20072;-51
2023/05/18 06:59:58;;;;;;;13.18;2.63;;;;;;;18.04;51.93;102756.41;5032358;28;20044;-50
2023/05/18 07:02:24;;;;;;;8.67;2.50;;;;;;;18.33;51.49;102759.88;5030767;28;20097;-54
2023/05/18 07:04:49;;;;;;;11.88;2.65;;;;;;;18.62;50.64;102757.91;5038464;28;20267;-50
2023/05/18 07:07:15;;;;;;;8.18;2.70;;;;;;;18.55;50.56;102763.28;5052868;28;20042;-51
2023/05/18 07:09:44;;;;;;;9.98;2.88;;;;;;;18.77;50.32;102772.16;5053496;28;20038;-55
2023/05/18 07:12:10;;;;;;;8.63;2.80;;;;;;;19.05;49.28;102767.69;5055445;28;20048;-51
2023/05/18 07:14:35;;;;;;;17.65;2.88;;;;;;;18.77;49.55;102768.59;5053313;28;20282;-50
2023/05/18 07:17:02;;;;;;;14.40;3.72;;;;;;;18.78;50.07;102775.69;5053793;28;20043;-48
2023/05/18 07:19:28;;;;;;;9.03;2.60;;;;;;;18.90;49.48;102770.50;5056335;28;20121;-54
2023/05/18 07:21:55;;;;;;;16.03;3.03;;;;;;;18.92;48.52;102779.28;5053194;28;20267;-51
2023/05/18 07:24:21;;;;;;;8.77;2.60;;;;;;;18.91;49.11;102777.59;5056658;28;20275;-48
2023/05/18 07:26:47;;;;;;;5.82;2.45;;;;;;;18.93;48.98;102780.97;5059957;28;20289;-53
2023/05/18 07:29:12;;;;;;;15.90;2.67;;;;;;;19.02;48.75;102787.88;5055944;28;20029;-54
2023/05/18 07:31:39;;;;;;;8.73;2.77;;;;;;;19.20;48.38;102786.47;5058602;28;20060;-49
2023/05/18 07:34:05;;;;;;;11.23;2.20;;;;;;;19.23;47.65;102786.06;5057018;28;20044;-48
2023/05/18 07:36:31;;;;;;;9.73;1.95;;;;;;;19.22;47.95;102783.53;5057283;28;20337;-50
2023/05/18 07:38:57;;;;;;;11.82;2.30;;;;;;;19.38;47.15;102788.56;5059121;28;20037;-53
2023/05/18 07:41:23;;;;;;;9.87;2.50;;;;;;;19.49;46.57;102789.84;5057858;28;20037;-49
2023/05/18 07:43:50;;;;;;;9.07;2.70;;;;;;;19.41;47.39;102790.88;5057516;28;20298;-49
2023/05/18 07:46:16;;;;;;;17.03;2.93;;;;;;;19.49;47.50;102792.53;5059224;28;20029;-49
2023/05/18 07:48:42;;;;;;;10.27;2.25;;;;;;;19.28;46.87;102791.69;5056198;28;20316;-53
2023/05/18 07:51:07;;;;;;;12.75;2.72;;;;;;;19.45;46.79;102789.41;5059510;28;20109;-52
2023/05/18 07:53:33;;;;;;;11.27;3.40;;;;;;;19.38;46.39;102791.28;5057582;28;20034;-51
2023/05/18 07:55:59;;;;;;;13.25;2.78;;;;;;;19.88;46.04;102799.00;5058900;28;20063;-51
2023/05/18 07:58:24;;;;;;;14.67;2.57;;;;;;;19.91;45.80;102798.63;5056553;28;20068;-52
2023/05/18 08:00:50;;;;;;;11.43;3.20;;;;;;;20.01;45.65;102803.63;5057584;28;20334;-51
2023/05/18 08:03:17;;;;;;;13.97;2.70;;;;;;;20.01;45.11;102800.91;5060398;28;20037;-50
2023/05/18 08:05:42;;;;;;;8.33;1.90;;;;;;;19.91;45.46;102808.63;5064702;28;20149;-50
2023/05/18 08:08:10;;;;;;;11.37;2.57;;;;;;;20.44;44.84;102796.81;5062570;28;20369;-52
2023/05/18 08:10:36;;;;;;;12.17;2.70;;;;;;;20.61;44.17;102804.50;5058836;28;20037;-49
2023/05/18 08:13:01;;;;;;;11.55;3.03;;;;;;;21.04;43.51;102809.34;5059124;28;20280;-49
2023/05/18 08:15:27;;;;;;;10.18;2.60;;;;;;;20.70;43.42;102807.81;5059223;28;20044;-52
2023/05/18 08:17:53;;;;;;;10.98;2.42;;;;;;;20.82;42.73;102816.97;5056558;28;20038;-53
2023/05/18 08:20:19;;;;;;;14.88;3.08;;;;;;;20.81;42.00;102817.22;5061179;28;20048;-50
2023/05/18 08:22:44;;;;;;;9.27;2.15;;;;;;;21.08;42.09;102809.72;5058926;28;20049;-48
2023/05/18 08:25:10;;;;;;;8.63;2.23;;;;;;;21.28;41.99;102815.06;5059100;28;20041;-51
2023/05/18 08:27:36;;;;;;;13.13;2.92;;;;;;;21.45;41.50;102812.63;5056466;28;20026;-47
2023/05/18 08:30:02;;;;;;;13.05;3.10;;;;;;;21.85;40.71;102811.47;5056596;28;20068;-48
2023/05/18 08:32:28;;;;;;;9.75;2.88;;;;;;;21.55;42.04;102811.28;5058970;28;20029;-49
2023/05/18 08:34:54;;;;;;;14.32;3.00;;;;;;;21.90;41.20;102818.97;5061089;28;20117;-50
2023/05/18 08:37:20;;;;;;;7.97;2.37;;;;;;;21.68;41.27;102810.38;5055462;28;20037;-52
2023/05/18 08:39:46;;;;;;;12.10;3.07;;;;;;;21.90;40.93;102808.91;5055753;28;20029;-52
2023/05/18 08:42:20;;;;;;;8.83;2.30;;;;;;;22.29;40.56;102813.34;5038757;28;20274;-50
2023/05/18 08:44:55;;;;;;;9.80;2.57;;;;;;;22.17;39.42;102800.47;5058488;28;20038;-49
2023/05/18 08:47:25;;;;;;;9.20;2.63;;;;;;;22.29;40.47;102805.16;5055794;28;20268;-52
2023/05/18 08:49:54;;;;;;;10.13;2.40;;;;;;;22.44;39.89;102810.22;5062278;28;20318;-50
2023/05/18 08:52:25;;;;;;;8.67;2.00;;;;;;;22.20;39.98;102801.91;5060098;28;20276;-49
2023/05/18 08:54:53;;;;;;;7.27;2.23;;;;;;;22.58;39.22;102808.19;5053578;28;20347;-49
2023/05/18 08:57:21;;;;;;;9.43;2.77;;;;;;;22.66;38.77;102791.56;5055750;28;20250;-51
2023/05/18 08:59:48;;;;;;;11.13;2.73;;;;;;;23.21;37.64;102795.16;5058992;28;20279;-52
2023/05/18 09:02:14;;;;;;;9.77;2.17;;;;;;;23.22;38.11;102788.63;5054191;28;20283;-53
2023/05/18 09:04:39;;;;;;;8.30;2.63;;;;;;;22.87;38.66;102789.38;5039649;28;20033;-50
2023/05/18 09:07:07;;;;;;;9.13;3.17;;;;;;;23.09;38.06;102780.69;5056741;28;20033;-49
2023/05/18 09:09:34;;;;;;;9.57;2.50;;;;;;;23.15;38.32;102786.00;5056150;28;20029;-50
2023/05/18 09:12:00;;;;;;;13.03;2.93;;;;;;;23.50;37.38;102781.72;5055535;28;20037;-52
2023/05/18 09:14:26;;;;;;;12.00;2.55;;;;;;;23.81;37.23;102777.00;5058133;28;20096;-51
2023/05/18 09:16:52;;;;;;;15.52;3.40;;;;;;;23.19;38.56;102781.78;5055977;28;20100;-52
2023/05/18 09:19:18;;;;;;;9.38;3.00;;;;;;;23.38;37.32;102770.78;5055499;28;20038;-51
2023/05/18 09:21:44;;;;;;;10.13;2.17;;;;;;;23.96;36.61;102773.75;5057905;28;20058;-51
2023/05/18 09:24:10;;;;;;;11.38;2.65;;;;;;;24.08;36.97;102776.50;5054827;28;20060;-51
2023/05/18 09:26:37;;;;;;;6.70;2.60;;;;;;;24.16;37.19;102776.13;5062918;28;20040;-51
2023/05/18 09:29:17;;;;;;;8.07;2.95;;;;;;;24.06;36.76;102767.72;5055193;28;20022;-47
2023/05/18 09:31:45;;;;;;;11.43;1.87;;;;;;;24.11;35.61;102773.28;5055092;28;20104;-46
2023/05/18 09:34:11;;;;;;;6.77;2.40;;;;;;;24.56;35.00;102765.44;5054881;28;20025;-51
2023/05/18 09:36:37;;;;;;;11.07;2.38;;;;;;;24.33;35.11;102778.94;5060242;28;20032;-48
2023/05/18 09:39:07;;;;;;;;;;;;;;;24.57;35.03;102772.56;5061637;28;20033;-50
2023/05/18 09:41:33;;;;;;;8.23;2.77;;;;;;;25.16;33.41;102763.28;5057721;28;19920;-52
2023/05/18 09:44:03;;;;;;;6.95;2.53;;;;;;;25.63;33.67;102762.09;5057464;28;20064;-50
2023/05/18 09:46:31;;;;;;;9.00;2.40;;;;;;;25.68;34.03;102769.59;5057560;28;20052;-49
2023/05/18 09:48:57;;;;;;;10.20;2.93;;;;;;;26.23;32.70;102770.63;5055733;28;20025;-48
2023/05/18 09:51:24;;;;;;;;;;;;;;;26.16;33.02;102767.19;5061551;28;20048;-51
2023/05/18 09:53:57;;;;;;;7.43;2.10;;;;;;;25.89;33.11;102774.28;5054030;28;19917;-47
2023/05/18 09:56:24;;;;;;;9.37;2.97;;;;;;;25.57;33.05;102768.59;5055082;28;20092;-49
2023/05/18 09:58:49;;;;;;;13.07;3.03;;;;;;;25.53;32.86;102770.19;5055247;28;20037;-50
2023/05/18 10:01:15;;;;;;;12.05;2.53;;;;;;;25.88;32.15;102761.66;5059007;28;20029;-51
2023/05/18 10:03:41;;;;;;;10.43;2.67;;;;;;;26.15;32.25;102752.66;5054665;28;20025;-52
2023/05/18 10:06:08;;;;;;;10.38;2.50;;;;;;;26.52;31.72;102750.34;5062838;28;20025;-48
2023/05/18 10:08:35;;;;;;;6.87;2.10;;;;;;;26.78;32.05;102754.19;5056000;28;20043;-48
2023/05/18 10:11:01;;;;;;;11.80;2.30;;;;;;;27.74;31.48;102759.13;5053817;28;20021;-54
2023/05/18 10:13:30;;;;;;;5.73;1.73;;;;;;;28.28;31.16;102755.25;5055916;28;20088;-48
2023/05/18 10:16:00;;;;;;;10.33;2.37;;;;;;;28.53;29.35;102755.59;5052259;28;20030;-51
2023/05/18 10:18:27;;;;;;;6.67;1.90;;;;;;;28.91;30.33;102753.47;5054694;28;20033;-50
2023/05/18 10:20:57;;;;;;;9.73;2.20;;;;;;;29.69;28.23;102759.75;5064813;28;20041;-49
2023/05/18 10:23:24;;;;;;;8.70;2.67;;;;;;;30.09;27.59;102761.81;5055504;28;20025;-51
2023/05/18 10:25:51;;;;;;;6.47;2.10;;;;;;;30.44;27.26;102760.00;5055181;28;20040;-49
2023/05/18 10:28:26;;;;;;;7.10;2.00;;;;;;;29.14;28.51;102756.78;5052896;28;20093;-54
2023/05/18 10:30:53;;;;;;;7.27;2.53;;;;;;;29.91;27.84;102753.06;5054503;28;20025;-51
2023/05/18 10:33:24;;;;;;;8.10;2.20;;;;;;;30.78;27.97;102752.88;5051418;28;20040;-49
2023/05/18 10:35:50;;;;;;;12.00;2.40;;;;;;;31.22;25.60;102753.91;5057923;28;20040;-48
2023/05/18 10:38:24;;;;;;;7.05;2.00;;;;;;;32.23;24.99;102762.44;5056721;28;20076;-52
2023/05/18 10:40:52;;;;;;;9.25;2.50;;;;;;;32.69;24.42;102758.22;5051256;28;20040;-54
2023/05/18 10:43:19;;;;;;;9.25;2.22;;;;;;;32.80;24.68;102758.88;5053725;28;20029;-49
2023/05/18 10:45:50;;;;;;;9.05;1.80;;;;;;;33.11;23.54;102761.97;5055167;28;20033;-53
2023/05/18 10:48:16;;;;;;;8.93;2.33;;;;;;;33.41;23.92;102748.66;5037055;28;20101;-53
2023/05/18 10:50:43;;;;;;;8.25;2.70;;;;;;;33.76;23.62;102753.84;5053822;28;20024;-53
2023/05/18 10:53:09;;;;;;;12.23;2.88;;;;;;;33.55;24.15;102742.31;5056351;28;20048;-54
2023/05/18 10:55:35;;;;;;;5.82;2.17;;;;;;;33.97;23.37;102747.88;5054665;28;20094;-55
2023/05/18 10:58:11;;;;;;;8.88;2.50;;;;;;;33.84;23.15;102744.78;5057580;28;20056;-53
2023/05/18 11:00:38;;;;;;;6.20;2.47;;;;;;;33.84;23.57;102743.97;5049339;28;20105;-52
2023/05/18 11:03:09;;;;;;;11.40;2.40;;;;;;;34.34;22.73;102743.16;5049076;28;20037;-53
2023/05/18 11:05:34;;;;;;;8.70;2.50;;;;;;;35.25;22.13;102748.69;5054124;28;20072;-55
2023/05/18 11:08:03;;;;;;;10.48;3.03;;;;;;;35.29;22.00;102746.09;5057886;28;20035;-53
2023/05/18 11:10:41;;;;;;;9.65;2.35;;;;;;;35.44;22.24;102747.63;5051175;28;20080;-55
2023/05/18 11:13:10;;;;;;;6.35;1.77;;;;;;;35.53;22.01;102734.63;5058598;28;20101;-56
2023/05/18 11:16:00;;;;;;;6.28;1.98;;;;;;;35.85;21.29;102738.13;5054124;28;20045;-52
2023/05/18 11:18:38;;;;;;;7.55;2.40;;;;;;;36.37;20.60;102739.31;5039655;28;20042;-55
2023/05/18 11:21:20;;;;;;;5.70;2.22;;;;;;;36.45;20.31;102735.72;5052513;28;20033;-53
2023/05/18 11:24:17;;;;;;;10.52;2.58;;;;;;;36.92;20.34;102733.38;5053803;28;20025;-54
2023/05/18 11:26:51;;;;;;;9.50;2.85;;;;;;;37.08;19.61;102739.25;5053785;28;20049;-53